TGW518 WSSS-VVDN
Flight info
| Callsign | TGW518 |
|---|---|
| Flight time | 2h 42m |
| Altitude | 35000 |
| Route | VMR9B VMR M771 DUDIS/K0856F360 L644 CN/K0856F350 L644 AC/K0813F270 W1 BMT Q1 SADIN SADIN1D |
| Aircraft | A320/M-SDFGHIRWYZ/LB1 |
Departure
| Time | 2026-05-07 02:05 |
|---|---|
| Airport | Singapore Changi Airport (WSSS) |
Arrival
| Time | 2026-05-07 04:48 |
|---|---|
| Airport | Da Nang International Airport (VVDN) |
| Time | Latitude | Longitude | Altitude | Speed | Heading |
|---|---|---|---|---|---|
| 2026-05-07 01:49 | 1.36169 | 103.98788 | 30 ft | 0 kts | 113° |
| 2026-05-07 01:55 | 1.36173 | 103.98777 | 30 ft | 3 kts | 116° |
| 2026-05-07 01:55 | 1.36185 | 103.98757 | 30 ft | 3 kts | 127° |
| 2026-05-07 01:56 | 1.36200 | 103.98739 | 30 ft | 2 kts | 131° |
| 2026-05-07 01:56 | 1.36212 | 103.98724 | 30 ft | 3 kts | 124° |
| 2026-05-07 01:56 | 1.36222 | 103.98705 | 30 ft | 3 kts | 85° |
| 2026-05-07 01:56 | 1.36214 | 103.98692 | 30 ft | 3 kts | 22° |
| 2026-05-07 01:57 | 1.36197 | 103.98685 | 30 ft | 0 kts | 22° |
| 2026-05-07 01:58 | 1.36202 | 103.98687 | 30 ft | 4 kts | 23° |
| 2026-05-07 01:59 | 1.36262 | 103.98712 | 30 ft | 12 kts | 22° |
| 2026-05-07 01:59 | 1.36337 | 103.98744 | 30 ft | 12 kts | 22° |
| 2026-05-07 01:59 | 1.36411 | 103.98775 | 30 ft | 12 kts | 22° |
| 2026-05-07 01:59 | 1.36486 | 103.98806 | 30 ft | 11 kts | 22° |
| 2026-05-07 02:00 | 1.36555 | 103.98812 | 30 ft | 10 kts | 352° |
| 2026-05-07 02:00 | 1.36624 | 103.98804 | 30 ft | 10 kts | 353° |
| 2026-05-07 02:00 | 1.36692 | 103.98798 | 30 ft | 10 kts | 3° |
| 2026-05-07 02:00 | 1.36756 | 103.98822 | 30 ft | 10 kts | 23° |
| 2026-05-07 02:01 | 1.36809 | 103.98861 | 30 ft | 10 kts | 78° |
| 2026-05-07 02:01 | 1.36784 | 103.98928 | 30 ft | 11 kts | 114° |
| 2026-05-07 02:01 | 1.36752 | 103.99002 | 30 ft | 12 kts | 112° |
| 2026-05-07 02:01 | 1.36715 | 103.99089 | 30 ft | 16 kts | 113° |
| 2026-05-07 02:02 | 1.36668 | 103.99198 | 30 ft | 18 kts | 113° |
| 2026-05-07 02:02 | 1.36618 | 103.99315 | 30 ft | 19 kts | 113° |
| 2026-05-07 02:02 | 1.36563 | 103.99443 | 30 ft | 21 kts | 113° |
| 2026-05-07 02:02 | 1.36508 | 103.99572 | 30 ft | 18 kts | 113° |
| 2026-05-07 02:03 | 1.36463 | 103.99677 | 30 ft | 15 kts | 113° |
| 2026-05-07 02:03 | 1.36426 | 103.99762 | 30 ft | 13 kts | 113° |
| 2026-05-07 02:03 | 1.36393 | 103.99839 | 30 ft | 8 kts | 114° |
| 2026-05-07 02:03 | 1.36348 | 103.99872 | 30 ft | 9 kts | 162° |
| 2026-05-07 02:04 | 1.36292 | 103.99880 | 30 ft | 9 kts | 173° |
| 2026-05-07 02:04 | 1.36228 | 103.99888 | 30 ft | 10 kts | 173° |
| 2026-05-07 02:04 | 1.36132 | 103.99871 | 30 ft | 27 kts | 204° |
| 2026-05-07 02:04 | 1.35750 | 103.99710 | 30 ft | 90 kts | 203° |
| 2026-05-07 02:05 | 1.35000 | 103.99393 | 30 ft | 141 kts | 203° |
| 2026-05-07 02:05 | 1.33968 | 103.98958 | 52 ft | 178 kts | 204° |
| 2026-05-07 02:05 | 1.32837 | 103.98476 | 630 ft | 177 kts | 204° |
| 2026-05-07 02:05 | 1.31699 | 103.97991 | 1223 ft | 178 kts | 203° |
| 2026-05-07 02:06 | 1.30545 | 103.97505 | 1739 ft | 185 kts | 203° |
| 2026-05-07 02:06 | 1.29293 | 103.96958 | 1836 ft | 209 kts | 204° |
| 2026-05-07 02:06 | 1.27874 | 103.96323 | 1945 ft | 236 kts | 205° |
| 2026-05-07 02:06 | 1.26297 | 103.95629 | 2209 ft | 259 kts | 203° |
| 2026-05-07 02:07 | 1.24586 | 103.94975 | 2820 ft | 266 kts | 194° |
| 2026-05-07 02:07 | 1.21148 | 103.95964 | 4125 ft | 275 kts | 139° |
| 2026-05-07 02:07 | 1.19731 | 103.97267 | 4889 ft | 276 kts | 139° |
| 2026-05-07 02:08 | 1.18292 | 103.98546 | 5651 ft | 278 kts | 140° |
| 2026-05-07 02:08 | 1.16850 | 103.99869 | 6292 ft | 284 kts | 129° |
| 2026-05-07 02:08 | 1.16050 | 104.01659 | 6933 ft | 288 kts | 96° |
| 2026-05-07 02:08 | 1.16297 | 104.03637 | 7534 ft | 292 kts | 69° |
| 2026-05-07 02:09 | 1.17401 | 104.05351 | 8150 ft | 296 kts | 51° |
| 2026-05-07 02:09 | 1.18698 | 104.06941 | 8839 ft | 296 kts | 51° |
| 2026-05-07 02:09 | 1.20031 | 104.08475 | 9463 ft | 298 kts | 43° |
| 2026-05-07 02:09 | 1.21721 | 104.09684 | 10089 ft | 300 kts | 28° |
| 2026-05-07 02:10 | 1.23599 | 104.10699 | 10332 ft | 317 kts | 29° |
| 2026-05-07 02:10 | 1.25711 | 104.11495 | 10488 ft | 334 kts | 10° |
| 2026-05-07 02:10 | 1.28077 | 104.11560 | 10664 ft | 350 kts | 353° |
| 2026-05-07 02:10 | 1.30480 | 104.10958 | 10931 ft | 361 kts | 338° |
| 2026-05-07 02:11 | 1.32675 | 104.09712 | 11446 ft | 365 kts | 322° |
| 2026-05-07 02:11 | 1.34631 | 104.08068 | 11947 ft | 369 kts | 320° |
| 2026-05-07 02:11 | 1.36587 | 104.06404 | 12497 ft | 371 kts | 320° |
| 2026-05-07 02:11 | 1.38565 | 104.04736 | 13008 ft | 373 kts | 320° |
| 2026-05-07 02:12 | 1.40579 | 104.03121 | 13498 ft | 376 kts | 326° |
| 2026-05-07 02:12 | 1.42869 | 104.01851 | 13987 ft | 378 kts | 338° |
| 2026-05-07 02:12 | 1.45358 | 104.00988 | 14477 ft | 380 kts | 343° |
| 2026-05-07 02:12 | 1.47885 | 104.00181 | 14954 ft | 382 kts | 343° |
| 2026-05-07 02:13 | 1.50421 | 103.99362 | 15411 ft | 385 kts | 343° |
| 2026-05-07 02:13 | 1.52979 | 103.98529 | 15857 ft | 387 kts | 342° |
| 2026-05-07 02:13 | 1.55553 | 103.97689 | 16313 ft | 390 kts | 342° |
| 2026-05-07 02:13 | 1.58149 | 103.96846 | 16760 ft | 393 kts | 343° |
| 2026-05-07 02:14 | 1.60753 | 103.96006 | 17207 ft | 395 kts | 343° |
| 2026-05-07 02:14 | 1.63379 | 103.95158 | 17643 ft | 398 kts | 343° |
| 2026-05-07 02:14 | 1.66026 | 103.94302 | 18090 ft | 400 kts | 343° |
| 2026-05-07 02:14 | 1.68653 | 103.93453 | 18510 ft | 403 kts | 343° |
| 2026-05-07 02:15 | 1.71362 | 103.92579 | 18931 ft | 406 kts | 343° |
| 2026-05-07 02:15 | 1.74065 | 103.91712 | 19349 ft | 409 kts | 345° |
| 2026-05-07 02:15 | 1.76846 | 103.91137 | 19745 ft | 410 kts | 354° |
| 2026-05-07 02:15 | 1.79667 | 103.90930 | 20148 ft | 413 kts | 357° |
| 2026-05-07 02:16 | 1.82542 | 103.90749 | 20544 ft | 416 kts | 357° |
| 2026-05-07 02:16 | 1.85439 | 103.90569 | 20932 ft | 418 kts | 357° |
| 2026-05-07 02:16 | 1.88353 | 103.90387 | 21296 ft | 421 kts | 357° |
| 2026-05-07 02:16 | 1.91283 | 103.90200 | 21640 ft | 423 kts | 357° |
| 2026-05-07 02:17 | 1.94239 | 103.90008 | 21966 ft | 426 kts | 357° |
| 2026-05-07 02:17 | 1.97211 | 103.89818 | 22290 ft | 429 kts | 357° |
| 2026-05-07 02:17 | 2.00195 | 103.89627 | 22600 ft | 431 kts | 357° |
| 2026-05-07 02:17 | 2.03202 | 103.89433 | 22902 ft | 433 kts | 357° |
| 2026-05-07 02:18 | 2.06216 | 103.89239 | 23195 ft | 435 kts | 357° |
| 2026-05-07 02:18 | 2.09245 | 103.89046 | 23476 ft | 437 kts | 357° |
| 2026-05-07 02:18 | 2.12294 | 103.88853 | 23750 ft | 439 kts | 357° |
| 2026-05-07 02:18 | 2.15315 | 103.88663 | 24011 ft | 441 kts | 357° |
| 2026-05-07 02:19 | 2.18398 | 103.88469 | 24267 ft | 443 kts | 357° |
| 2026-05-07 02:19 | 2.21487 | 103.88274 | 24531 ft | 445 kts | 357° |
| 2026-05-07 02:19 | 2.24581 | 103.88077 | 24793 ft | 447 kts | 356° |
| 2026-05-07 02:19 | 2.27695 | 103.87877 | 25046 ft | 449 kts | 357° |
| 2026-05-07 02:20 | 2.30811 | 103.87678 | 25298 ft | 450 kts | 357° |
| 2026-05-07 02:20 | 2.33944 | 103.87499 | 25549 ft | 451 kts | 0° |
| 2026-05-07 02:20 | 2.37088 | 103.87722 | 25774 ft | 452 kts | 10° |
| 2026-05-07 02:20 | 2.40132 | 103.88488 | 26003 ft | 453 kts | 20° |
| 2026-05-07 02:21 | 2.43006 | 103.89777 | 26224 ft | 453 kts | 30° |
| 2026-05-07 02:21 | 2.45692 | 103.91427 | 26441 ft | 454 kts | 32° |
| 2026-05-07 02:21 | 2.48350 | 103.93087 | 26653 ft | 456 kts | 32° |
| 2026-05-07 02:21 | 2.51081 | 103.94789 | 26877 ft | 457 kts | 32° |
| 2026-05-07 02:22 | 2.53748 | 103.96448 | 27076 ft | 458 kts | 32° |
| 2026-05-07 02:22 | 2.56460 | 103.98134 | 27307 ft | 459 kts | 32° |
| 2026-05-07 02:22 | 2.59173 | 103.99818 | 27621 ft | 458 kts | 32° |
| 2026-05-07 02:22 | 2.61878 | 104.01499 | 27940 ft | 457 kts | 32° |
| 2026-05-07 02:23 | 2.64575 | 104.03179 | 28251 ft | 456 kts | 32° |
| 2026-05-07 02:23 | 2.67269 | 104.04856 | 28572 ft | 455 kts | 32° |
| 2026-05-07 02:23 | 2.69954 | 104.06524 | 28890 ft | 454 kts | 32° |
| 2026-05-07 02:23 | 2.72645 | 104.08196 | 29207 ft | 454 kts | 32° |
| 2026-05-07 02:24 | 2.75325 | 104.09864 | 29530 ft | 453 kts | 32° |
| 2026-05-07 02:24 | 2.77994 | 104.11527 | 29850 ft | 452 kts | 32° |
| 2026-05-07 02:24 | 2.80669 | 104.13192 | 30172 ft | 451 kts | 32° |
| 2026-05-07 02:24 | 2.83336 | 104.14852 | 30488 ft | 451 kts | 32° |
| 2026-05-07 02:25 | 2.85987 | 104.16506 | 30810 ft | 450 kts | 33° |
| 2026-05-07 02:25 | 2.88646 | 104.18164 | 31128 ft | 449 kts | 32° |
| 2026-05-07 02:25 | 2.91298 | 104.19816 | 31452 ft | 449 kts | 32° |
| 2026-05-07 02:25 | 2.93946 | 104.21462 | 31768 ft | 448 kts | 32° |
| 2026-05-07 02:26 | 2.96584 | 104.23103 | 32084 ft | 447 kts | 32° |
| 2026-05-07 02:26 | 2.99231 | 104.24753 | 32400 ft | 446 kts | 33° |
| 2026-05-07 02:26 | 3.01857 | 104.26394 | 32699 ft | 446 kts | 33° |
| 2026-05-07 02:26 | 3.04486 | 104.28034 | 33012 ft | 445 kts | 33° |
| 2026-05-07 02:27 | 3.07119 | 104.29676 | 33299 ft | 444 kts | 33° |
| 2026-05-07 02:27 | 3.09727 | 104.31320 | 33586 ft | 443 kts | 33° |
| 2026-05-07 02:27 | 3.12329 | 104.32972 | 33859 ft | 443 kts | 33° |
| 2026-05-07 02:27 | 3.14925 | 104.34623 | 34119 ft | 442 kts | 33° |
| 2026-05-07 02:28 | 3.17529 | 104.36261 | 34364 ft | 442 kts | 33° |
| 2026-05-07 02:28 | 3.20135 | 104.37884 | 34611 ft | 441 kts | 32° |
| 2026-05-07 02:28 | 3.22718 | 104.39481 | 34821 ft | 441 kts | 32° |
| 2026-05-07 02:28 | 3.25331 | 104.41091 | 34884 ft | 444 kts | 32° |
| 2026-05-07 02:29 | 3.30644 | 104.44376 | 34888 ft | 454 kts | 33° |
| 2026-05-07 02:29 | 3.36053 | 104.47739 | 34886 ft | 459 kts | 33° |
| 2026-05-07 02:30 | 3.41484 | 104.51113 | 34877 ft | 460 kts | 33° |
| 2026-05-07 02:30 | 3.46931 | 104.54498 | 34877 ft | 460 kts | 33° |
| 2026-05-07 02:31 | 3.52364 | 104.57877 | 34879 ft | 460 kts | 33° |
| 2026-05-07 02:31 | 3.57817 | 104.61262 | 34884 ft | 460 kts | 33° |
| 2026-05-07 02:32 | 3.63226 | 104.64621 | 34887 ft | 461 kts | 33° |
| 2026-05-07 02:32 | 3.68679 | 104.68009 | 34888 ft | 461 kts | 33° |
| 2026-05-07 02:33 | 3.73205 | 104.70827 | 34889 ft | 461 kts | 33° |
| 2026-05-07 02:33 | 3.78647 | 104.74213 | 34889 ft | 461 kts | 33° |
| 2026-05-07 02:34 | 3.84103 | 104.77605 | 34888 ft | 461 kts | 33° |
| 2026-05-07 02:34 | 3.89562 | 104.81002 | 34886 ft | 461 kts | 33° |
| 2026-05-07 02:35 | 3.95020 | 104.84400 | 34886 ft | 462 kts | 33° |
| 2026-05-07 02:35 | 4.00482 | 104.87795 | 34886 ft | 462 kts | 33° |
| 2026-05-07 02:36 | 4.05948 | 104.91192 | 34888 ft | 462 kts | 33° |
| 2026-05-07 02:36 | 4.11402 | 104.94598 | 34890 ft | 462 kts | 33° |
| 2026-05-07 02:37 | 4.16830 | 104.97995 | 34889 ft | 462 kts | 33° |
| 2026-05-07 02:37 | 4.22293 | 105.01388 | 34891 ft | 462 kts | 33° |
| 2026-05-07 02:38 | 4.27759 | 105.04772 | 34891 ft | 462 kts | 32° |
| 2026-05-07 02:38 | 4.33238 | 105.08168 | 34890 ft | 462 kts | 33° |
| 2026-05-07 02:39 | 4.38700 | 105.11568 | 34891 ft | 462 kts | 33° |
| 2026-05-07 02:39 | 4.44166 | 105.14968 | 34891 ft | 462 kts | 33° |
| 2026-05-07 02:40 | 4.49642 | 105.18367 | 34890 ft | 462 kts | 33° |
| 2026-05-07 02:40 | 4.55070 | 105.21746 | 34890 ft | 462 kts | 33° |
| 2026-05-07 02:41 | 4.60528 | 105.25145 | 34890 ft | 462 kts | 33° |
| 2026-05-07 02:41 | 4.65992 | 105.28540 | 34889 ft | 462 kts | 33° |
| 2026-05-07 02:42 | 4.71458 | 105.31945 | 34888 ft | 462 kts | 33° |
| 2026-05-07 02:42 | 4.76926 | 105.35345 | 34888 ft | 462 kts | 33° |
| 2026-05-07 02:43 | 4.82378 | 105.38741 | 34886 ft | 461 kts | 33° |
| 2026-05-07 02:43 | 4.87774 | 105.42226 | 34884 ft | 461 kts | 34° |
| 2026-05-07 02:44 | 4.93133 | 105.45762 | 34885 ft | 461 kts | 34° |
| 2026-05-07 02:44 | 4.98502 | 105.49280 | 34880 ft | 461 kts | 34° |
| 2026-05-07 02:45 | 5.03849 | 105.52757 | 34880 ft | 461 kts | 34° |
| 2026-05-07 02:45 | 5.09234 | 105.56253 | 34878 ft | 460 kts | 34° |
| 2026-05-07 02:46 | 5.14615 | 105.59756 | 34876 ft | 460 kts | 34° |
| 2026-05-07 02:46 | 5.19988 | 105.63262 | 34874 ft | 460 kts | 34° |
| 2026-05-07 02:47 | 5.25355 | 105.66764 | 34875 ft | 460 kts | 34° |
| 2026-05-07 02:47 | 5.30725 | 105.70263 | 34875 ft | 460 kts | 34° |
| 2026-05-07 02:48 | 5.36101 | 105.73757 | 34876 ft | 460 kts | 33° |
| 2026-05-07 02:48 | 5.41479 | 105.77262 | 34878 ft | 460 kts | 34° |
| 2026-05-07 02:49 | 5.46812 | 105.80748 | 34882 ft | 460 kts | 34° |
| 2026-05-07 02:49 | 5.52184 | 105.84259 | 34885 ft | 461 kts | 34° |
| 2026-05-07 02:50 | 5.57558 | 105.87759 | 34888 ft | 460 kts | 34° |
| 2026-05-07 02:50 | 5.62945 | 105.91269 | 34890 ft | 460 kts | 33° |
| 2026-05-07 02:51 | 5.68320 | 105.94771 | 34891 ft | 460 kts | 34° |
| 2026-05-07 02:51 | 5.73656 | 105.98257 | 34891 ft | 460 kts | 34° |
| 2026-05-07 02:52 | 5.79027 | 106.01769 | 34892 ft | 460 kts | 34° |
| 2026-05-07 02:52 | 5.84399 | 106.05284 | 34893 ft | 460 kts | 34° |
| 2026-05-07 02:53 | 5.89768 | 106.08791 | 34893 ft | 460 kts | 34° |
| 2026-05-07 02:53 | 5.95141 | 106.12301 | 34894 ft | 460 kts | 34° |
| 2026-05-07 02:54 | 6.00507 | 106.15807 | 34894 ft | 460 kts | 34° |
| 2026-05-07 02:54 | 6.05871 | 106.19306 | 34893 ft | 459 kts | 34° |
| 2026-05-07 02:55 | 6.11195 | 106.22791 | 34891 ft | 460 kts | 34° |
| 2026-05-07 02:55 | 6.16555 | 106.26303 | 34888 ft | 459 kts | 34° |
| 2026-05-07 02:56 | 6.21909 | 106.29809 | 34891 ft | 460 kts | 34° |
| 2026-05-07 02:56 | 6.27268 | 106.33315 | 34893 ft | 459 kts | 34° |
| 2026-05-07 02:57 | 6.32642 | 106.36824 | 34895 ft | 460 kts | 34° |
| 2026-05-07 02:57 | 6.38003 | 106.40332 | 34897 ft | 460 kts | 34° |
| 2026-05-07 02:58 | 6.43371 | 106.43843 | 34899 ft | 460 kts | 34° |
| 2026-05-07 02:58 | 6.48697 | 106.47342 | 34899 ft | 460 kts | 34° |
| 2026-05-07 02:59 | 6.54057 | 106.50867 | 34899 ft | 460 kts | 34° |
| 2026-05-07 02:59 | 6.59420 | 106.54383 | 34900 ft | 460 kts | 34° |
| 2026-05-07 03:00 | 6.64793 | 106.57902 | 34900 ft | 461 kts | 34° |
| 2026-05-07 03:00 | 6.70167 | 106.61423 | 34900 ft | 461 kts | 34° |
| 2026-05-07 03:01 | 6.75543 | 106.64942 | 34900 ft | 461 kts | 34° |
| 2026-05-07 03:01 | 6.80925 | 106.68467 | 34902 ft | 461 kts | 34° |
| 2026-05-07 03:02 | 6.86298 | 106.71997 | 34907 ft | 461 kts | 34° |
| 2026-05-07 03:02 | 6.91672 | 106.75526 | 34908 ft | 461 kts | 34° |
| 2026-05-07 03:03 | 6.97165 | 106.78844 | 34908 ft | 461 kts | 24° |
| 2026-05-07 03:03 | 7.00206 | 106.79887 | 34907 ft | 462 kts | 13° |
| 2026-05-07 03:03 | 7.03336 | 106.80379 | 34905 ft | 462 kts | 4° |
| 2026-05-07 03:04 | 7.09754 | 106.79969 | 34899 ft | 463 kts | 354° |
| 2026-05-07 03:04 | 7.16177 | 106.79285 | 34898 ft | 464 kts | 354° |
| 2026-05-07 03:05 | 7.22602 | 106.78612 | 34900 ft | 464 kts | 354° |
| 2026-05-07 03:05 | 7.29049 | 106.77932 | 34904 ft | 465 kts | 354° |
| 2026-05-07 03:06 | 7.35489 | 106.77253 | 34906 ft | 465 kts | 354° |
| 2026-05-07 03:06 | 7.41937 | 106.76574 | 34909 ft | 465 kts | 355° |
| 2026-05-07 03:07 | 7.48331 | 106.75902 | 34910 ft | 465 kts | 354° |
| 2026-05-07 03:07 | 7.54761 | 106.75220 | 34910 ft | 464 kts | 354° |
| 2026-05-07 03:08 | 7.61197 | 106.74539 | 34910 ft | 465 kts | 354° |
| 2026-05-07 03:08 | 7.67631 | 106.73851 | 34910 ft | 465 kts | 354° |
| 2026-05-07 03:09 | 7.74070 | 106.73168 | 34909 ft | 465 kts | 354° |
| 2026-05-07 03:09 | 7.80487 | 106.72486 | 34910 ft | 465 kts | 354° |
| 2026-05-07 03:10 | 7.86914 | 106.71807 | 34909 ft | 465 kts | 354° |
| 2026-05-07 03:10 | 7.93312 | 106.71136 | 34909 ft | 465 kts | 354° |
| 2026-05-07 03:11 | 7.99745 | 106.70454 | 34910 ft | 465 kts | 354° |
| 2026-05-07 03:11 | 8.06178 | 106.69770 | 34908 ft | 464 kts | 354° |
| 2026-05-07 03:12 | 8.12609 | 106.69092 | 34908 ft | 464 kts | 354° |
| 2026-05-07 03:12 | 8.19040 | 106.68413 | 34909 ft | 464 kts | 354° |
| 2026-05-07 03:13 | 8.25462 | 106.67729 | 34908 ft | 464 kts | 354° |
| 2026-05-07 03:13 | 8.31889 | 106.67046 | 34910 ft | 464 kts | 354° |
| 2026-05-07 03:14 | 8.38313 | 106.66358 | 34908 ft | 464 kts | 354° |
| 2026-05-07 03:15 | 8.47957 | 106.65333 | 34902 ft | 464 kts | 354° |
| 2026-05-07 03:15 | 8.54385 | 106.64652 | 34900 ft | 464 kts | 354° |
| 2026-05-07 03:16 | 8.60817 | 106.63969 | 34900 ft | 464 kts | 354° |
| 2026-05-07 03:16 | 8.67243 | 106.63291 | 34900 ft | 464 kts | 354° |
| 2026-05-07 03:17 | 8.72600 | 106.62925 | 34898 ft | 464 kts | 3° |
| 2026-05-07 03:17 | 8.79975 | 106.64342 | 34897 ft | 462 kts | 14° |
| 2026-05-07 03:18 | 8.85163 | 106.65669 | 34895 ft | 463 kts | 14° |
| 2026-05-07 03:18 | 8.91411 | 106.67266 | 34896 ft | 463 kts | 14° |
| 2026-05-07 03:19 | 8.97660 | 106.68860 | 34900 ft | 463 kts | 14° |
| 2026-05-07 03:19 | 9.03922 | 106.70448 | 34903 ft | 463 kts | 14° |
| 2026-05-07 03:20 | 9.10143 | 106.72027 | 34907 ft | 463 kts | 14° |
| 2026-05-07 03:20 | 9.16393 | 106.73628 | 34909 ft | 463 kts | 14° |
| 2026-05-07 03:21 | 9.22647 | 106.75239 | 34909 ft | 463 kts | 14° |
| 2026-05-07 03:21 | 9.28900 | 106.76843 | 34906 ft | 463 kts | 14° |
| 2026-05-07 03:22 | 9.35161 | 106.78438 | 34906 ft | 463 kts | 14° |
| 2026-05-07 03:22 | 9.41413 | 106.80038 | 34908 ft | 463 kts | 14° |
| 2026-05-07 03:23 | 9.47661 | 106.81631 | 34909 ft | 464 kts | 14° |
| 2026-05-07 03:23 | 9.53922 | 106.83229 | 34909 ft | 463 kts | 14° |
| 2026-05-07 03:24 | 9.60168 | 106.84836 | 34908 ft | 463 kts | 14° |
| 2026-05-07 03:24 | 9.66423 | 106.86435 | 34908 ft | 463 kts | 14° |
| 2026-05-07 03:25 | 9.72647 | 106.88017 | 34909 ft | 463 kts | 14° |
| 2026-05-07 03:25 | 9.78909 | 106.89602 | 34909 ft | 464 kts | 14° |
| 2026-05-07 03:26 | 9.85165 | 106.91187 | 34908 ft | 463 kts | 14° |
| 2026-05-07 03:26 | 9.91424 | 106.92781 | 34908 ft | 463 kts | 14° |
| 2026-05-07 03:27 | 9.97680 | 106.94379 | 34907 ft | 464 kts | 14° |
| 2026-05-07 03:27 | 10.03939 | 106.95978 | 34908 ft | 464 kts | 14° |
| 2026-05-07 03:28 | 10.10207 | 106.97573 | 34909 ft | 464 kts | 14° |
| 2026-05-07 03:28 | 10.16463 | 106.99165 | 34910 ft | 464 kts | 14° |
| 2026-05-07 03:29 | 10.22722 | 107.00763 | 34910 ft | 464 kts | 14° |
| 2026-05-07 03:29 | 10.28980 | 107.02354 | 34910 ft | 464 kts | 14° |
| 2026-05-07 03:30 | 10.35204 | 107.03938 | 34910 ft | 464 kts | 14° |
| 2026-05-07 03:30 | 10.41468 | 107.05536 | 34911 ft | 464 kts | 14° |
| 2026-05-07 03:31 | 10.47726 | 107.07144 | 34908 ft | 463 kts | 14° |
| 2026-05-07 03:31 | 10.53990 | 107.08745 | 34907 ft | 463 kts | 14° |
| 2026-05-07 03:32 | 10.60253 | 107.10329 | 34906 ft | 464 kts | 14° |
| 2026-05-07 03:32 | 10.66520 | 107.11899 | 34905 ft | 464 kts | 14° |
| 2026-05-07 03:33 | 10.72794 | 107.13479 | 34907 ft | 464 kts | 14° |
| 2026-05-07 03:33 | 10.79008 | 107.15049 | 34909 ft | 464 kts | 14° |
| 2026-05-07 03:34 | 10.85241 | 107.16627 | 34909 ft | 464 kts | 14° |
| 2026-05-07 03:34 | 10.91509 | 107.18217 | 34909 ft | 464 kts | 14° |
| 2026-05-07 03:35 | 10.97449 | 107.20725 | 34908 ft | 463 kts | 28° |
| 2026-05-07 03:35 | 11.03154 | 107.23802 | 34906 ft | 463 kts | 28° |
| 2026-05-07 03:36 | 11.08858 | 107.26876 | 34907 ft | 463 kts | 27° |
| 2026-05-07 03:36 | 11.14565 | 107.29946 | 34906 ft | 463 kts | 27° |
| 2026-05-07 03:37 | 11.20271 | 107.33019 | 34906 ft | 463 kts | 28° |
| 2026-05-07 03:37 | 11.25970 | 107.36089 | 34907 ft | 464 kts | 27° |
| 2026-05-07 03:38 | 11.31651 | 107.39152 | 34910 ft | 464 kts | 27° |
| 2026-05-07 03:38 | 11.37366 | 107.42234 | 34914 ft | 464 kts | 27° |
| 2026-05-07 03:39 | 11.43080 | 107.45311 | 34917 ft | 464 kts | 27° |
| 2026-05-07 03:39 | 11.48787 | 107.48386 | 34917 ft | 464 kts | 27° |
| 2026-05-07 03:40 | 11.54491 | 107.51465 | 34918 ft | 463 kts | 27° |
| 2026-05-07 03:40 | 11.60161 | 107.54526 | 34919 ft | 463 kts | 28° |
| 2026-05-07 03:41 | 11.65857 | 107.57602 | 34918 ft | 463 kts | 27° |
| 2026-05-07 03:41 | 11.71564 | 107.60683 | 34921 ft | 463 kts | 27° |
| 2026-05-07 03:42 | 11.77265 | 107.63766 | 34923 ft | 463 kts | 27° |
| 2026-05-07 03:42 | 11.82959 | 107.66851 | 34926 ft | 463 kts | 28° |
| 2026-05-07 03:43 | 11.88653 | 107.69939 | 34929 ft | 463 kts | 27° |
| 2026-05-07 03:43 | 11.94351 | 107.73016 | 34931 ft | 463 kts | 27° |
| 2026-05-07 03:44 | 11.99928 | 107.76032 | 34931 ft | 463 kts | 27° |
| 2026-05-07 03:44 | 12.05587 | 107.79106 | 34938 ft | 463 kts | 27° |
| 2026-05-07 03:45 | 12.11054 | 107.82070 | 34934 ft | 463 kts | 27° |
| 2026-05-07 03:45 | 12.16735 | 107.85154 | 34935 ft | 463 kts | 28° |
| 2026-05-07 03:46 | 12.22424 | 107.88247 | 34937 ft | 463 kts | 27° |
| 2026-05-07 03:46 | 12.28122 | 107.91334 | 34944 ft | 463 kts | 27° |
| 2026-05-07 03:47 | 12.33818 | 107.94426 | 34946 ft | 463 kts | 27° |
| 2026-05-07 03:47 | 12.39511 | 107.97520 | 34948 ft | 463 kts | 27° |
| 2026-05-07 03:48 | 12.45208 | 108.00615 | 34949 ft | 463 kts | 27° |
| 2026-05-07 03:48 | 12.50900 | 108.03714 | 34944 ft | 463 kts | 27° |
| 2026-05-07 03:49 | 12.56598 | 108.06811 | 34948 ft | 463 kts | 27° |
| 2026-05-07 03:49 | 12.62294 | 108.09917 | 34950 ft | 463 kts | 27° |
| 2026-05-07 03:50 | 12.68351 | 108.12108 | 34947 ft | 462 kts | 9° |
| 2026-05-07 03:50 | 12.74709 | 108.12495 | 34944 ft | 461 kts | 1° |
| 2026-05-07 03:51 | 12.81126 | 108.12636 | 34942 ft | 461 kts | 1° |
| 2026-05-07 03:51 | 12.87534 | 108.12794 | 34941 ft | 461 kts | 1° |
| 2026-05-07 03:52 | 12.93960 | 108.12949 | 34944 ft | 461 kts | 1° |
| 2026-05-07 03:52 | 13.00380 | 108.13105 | 34940 ft | 462 kts | 1° |
| 2026-05-07 03:53 | 13.06802 | 108.13262 | 34948 ft | 462 kts | 1° |
| 2026-05-07 03:53 | 13.13228 | 108.13411 | 34946 ft | 462 kts | 1° |
| 2026-05-07 03:54 | 13.19641 | 108.13568 | 34946 ft | 461 kts | 1° |
| 2026-05-07 03:54 | 13.26056 | 108.13721 | 34943 ft | 461 kts | 1° |
| 2026-05-07 03:55 | 13.32484 | 108.13877 | 34940 ft | 461 kts | 1° |
| 2026-05-07 03:55 | 13.38900 | 108.14031 | 34941 ft | 461 kts | 0° |
| 2026-05-07 03:56 | 13.45274 | 108.14163 | 34943 ft | 461 kts | 0° |
| 2026-05-07 03:56 | 13.51687 | 108.14290 | 34936 ft | 461 kts | 0° |
| 2026-05-07 03:57 | 13.58108 | 108.14429 | 34940 ft | 461 kts | 0° |
| 2026-05-07 03:57 | 13.64527 | 108.14575 | 34938 ft | 461 kts | 0° |
| 2026-05-07 03:58 | 13.70954 | 108.14718 | 34938 ft | 462 kts | 0° |
| 2026-05-07 03:58 | 13.77381 | 108.14859 | 34939 ft | 461 kts | 0° |
| 2026-05-07 03:59 | 13.83684 | 108.14997 | 34931 ft | 462 kts | 0° |
| 2026-05-07 03:59 | 13.89022 | 108.15112 | 34930 ft | 462 kts | 0° |
| 2026-05-07 04:00 | 13.96418 | 108.15277 | 34930 ft | 462 kts | 0° |
| 2026-05-07 04:00 | 14.02803 | 108.15426 | 34926 ft | 462 kts | 0° |
| 2026-05-07 04:01 | 14.09237 | 108.15560 | 34926 ft | 462 kts | 0° |
| 2026-05-07 04:01 | 14.14626 | 108.15666 | 34925 ft | 462 kts | 0° |
| 2026-05-07 04:02 | 14.20960 | 108.15798 | 34914 ft | 451 kts | 0° |
| 2026-05-07 04:02 | 14.27219 | 108.15935 | 34915 ft | 448 kts | 0° |
| 2026-05-07 04:03 | 14.33459 | 108.16074 | 34915 ft | 448 kts | 0° |
| 2026-05-07 04:03 | 14.39576 | 108.16213 | 34916 ft | 448 kts | 0° |
| 2026-05-07 04:04 | 14.45812 | 108.16352 | 34916 ft | 450 kts | 0° |
| 2026-05-07 04:04 | 14.52149 | 108.16489 | 34915 ft | 459 kts | 0° |
| 2026-05-07 04:05 | 14.58548 | 108.16627 | 34915 ft | 461 kts | 0° |
| 2026-05-07 04:05 | 14.64969 | 108.16770 | 34857 ft | 461 kts | 0° |
| 2026-05-07 04:05 | 14.68170 | 108.16844 | 34600 ft | 461 kts | 0° |
| 2026-05-07 04:06 | 14.71384 | 108.16915 | 34075 ft | 462 kts | 0° |
| 2026-05-07 04:06 | 14.74622 | 108.16983 | 33164 ft | 467 kts | 0° |
| 2026-05-07 04:06 | 14.77841 | 108.17051 | 32295 ft | 470 kts | 1° |
| 2026-05-07 04:06 | 14.81121 | 108.17121 | 31564 ft | 470 kts | 1° |
| 2026-05-07 04:07 | 14.84367 | 108.17193 | 31030 ft | 465 kts | 1° |
| 2026-05-07 04:07 | 14.87596 | 108.17263 | 30442 ft | 462 kts | 1° |
| 2026-05-07 04:07 | 14.90799 | 108.17333 | 29859 ft | 458 kts | 1° |
| 2026-05-07 04:07 | 14.93980 | 108.17402 | 29279 ft | 455 kts | 1° |
| 2026-05-07 04:08 | 14.97135 | 108.17472 | 28707 ft | 452 kts | 1° |
| 2026-05-07 04:08 | 15.00269 | 108.17543 | 28122 ft | 448 kts | 1° |
| 2026-05-07 04:08 | 15.03356 | 108.17613 | 27544 ft | 437 kts | 1° |
| 2026-05-07 04:08 | 15.06348 | 108.17681 | 27007 ft | 421 kts | 1° |
| 2026-05-07 04:09 | 15.09124 | 108.17745 | 26501 ft | 409 kts | 1° |
| 2026-05-07 04:09 | 15.11932 | 108.17809 | 25992 ft | 398 kts | 1° |
| 2026-05-07 04:09 | 15.14688 | 108.17871 | 25501 ft | 396 kts | 1° |
| 2026-05-07 04:09 | 15.17424 | 108.17929 | 25018 ft | 394 kts | 1° |
| 2026-05-07 04:10 | 15.20179 | 108.17986 | 24540 ft | 403 kts | 1° |
| 2026-05-07 04:10 | 15.23039 | 108.18045 | 24052 ft | 417 kts | 1° |
| 2026-05-07 04:10 | 15.25985 | 108.18105 | 23554 ft | 428 kts | 1° |
| 2026-05-07 04:10 | 15.28980 | 108.18166 | 23057 ft | 432 kts | 1° |
| 2026-05-07 04:11 | 15.31986 | 108.18229 | 22561 ft | 431 kts | 1° |
| 2026-05-07 04:11 | 15.34945 | 108.18295 | 22069 ft | 428 kts | 1° |
| 2026-05-07 04:11 | 15.37910 | 108.18361 | 21576 ft | 425 kts | 1° |
| 2026-05-07 04:11 | 15.40862 | 108.18426 | 21096 ft | 422 kts | 1° |
| 2026-05-07 04:12 | 15.43785 | 108.18491 | 20891 ft | 420 kts | 1° |
| 2026-05-07 04:12 | 15.46699 | 108.18557 | 20929 ft | 417 kts | 1° |
| 2026-05-07 04:12 | 15.49600 | 108.18620 | 20927 ft | 417 kts | 1° |
| 2026-05-07 04:12 | 15.52472 | 108.18959 | 20923 ft | 416 kts | 15° |
| 2026-05-07 04:13 | 15.55128 | 108.20119 | 20930 ft | 416 kts | 32° |
| 2026-05-07 04:13 | 15.57347 | 108.22026 | 20920 ft | 416 kts | 49° |
| 2026-05-07 04:13 | 15.58948 | 108.24517 | 20926 ft | 415 kts | 65° |
| 2026-05-07 04:13 | 15.59790 | 108.27372 | 20929 ft | 416 kts | 82° |
| 2026-05-07 04:14 | 15.59809 | 108.30363 | 20926 ft | 415 kts | 99° |
| 2026-05-07 04:14 | 15.59008 | 108.33227 | 20926 ft | 415 kts | 115° |
| 2026-05-07 04:14 | 15.57450 | 108.35736 | 20925 ft | 415 kts | 132° |
| 2026-05-07 04:14 | 15.55276 | 108.37675 | 20920 ft | 414 kts | 148° |
| 2026-05-07 04:15 | 15.52657 | 108.38897 | 20926 ft | 413 kts | 165° |
| 2026-05-07 04:15 | 15.49825 | 108.39324 | 20928 ft | 413 kts | 177° |
| 2026-05-07 04:15 | 15.46948 | 108.39409 | 20927 ft | 413 kts | 180° |
| 2026-05-07 04:15 | 15.44069 | 108.39356 | 20918 ft | 414 kts | 182° |
| 2026-05-07 04:16 | 15.41231 | 108.39229 | 20923 ft | 414 kts | 183° |
| 2026-05-07 04:16 | 15.38354 | 108.39078 | 20928 ft | 414 kts | 183° |
| 2026-05-07 04:16 | 15.35477 | 108.38942 | 20929 ft | 415 kts | 182° |
| 2026-05-07 04:16 | 15.32590 | 108.38834 | 20919 ft | 415 kts | 182° |
| 2026-05-07 04:17 | 15.29707 | 108.38752 | 20918 ft | 415 kts | 181° |
| 2026-05-07 04:17 | 15.26811 | 108.38687 | 20922 ft | 415 kts | 181° |
| 2026-05-07 04:17 | 15.23918 | 108.38631 | 20930 ft | 415 kts | 181° |
| 2026-05-07 04:17 | 15.21029 | 108.38578 | 20925 ft | 415 kts | 181° |
| 2026-05-07 04:18 | 15.18137 | 108.38518 | 20911 ft | 415 kts | 181° |
| 2026-05-07 04:18 | 15.15250 | 108.38450 | 20923 ft | 416 kts | 182° |
| 2026-05-07 04:18 | 15.12397 | 108.38018 | 20929 ft | 415 kts | 198° |
| 2026-05-07 04:18 | 15.09795 | 108.36756 | 20927 ft | 414 kts | 214° |
| 2026-05-07 04:19 | 15.07652 | 108.34786 | 20929 ft | 413 kts | 231° |
| 2026-05-07 04:19 | 15.06133 | 108.32281 | 20929 ft | 412 kts | 247° |
| 2026-05-07 04:19 | 15.05361 | 108.29427 | 20927 ft | 412 kts | 264° |
| 2026-05-07 04:19 | 15.05396 | 108.26479 | 20925 ft | 411 kts | 280° |
| 2026-05-07 04:20 | 15.06239 | 108.23664 | 20921 ft | 411 kts | 296° |
| 2026-05-07 04:20 | 15.07822 | 108.21206 | 20931 ft | 411 kts | 313° |
| 2026-05-07 04:20 | 15.10003 | 108.19318 | 20927 ft | 410 kts | 329° |
| 2026-05-07 04:21 | 15.15437 | 108.17725 | 20931 ft | 411 kts | 357° |
| 2026-05-07 04:21 | 15.18296 | 108.17647 | 20922 ft | 412 kts | 0° |
| 2026-05-07 04:21 | 15.21127 | 108.17707 | 20928 ft | 412 kts | 2° |
| 2026-05-07 04:21 | 15.23992 | 108.17838 | 20922 ft | 412 kts | 2° |
| 2026-05-07 04:22 | 15.26862 | 108.17985 | 20931 ft | 413 kts | 2° |
| 2026-05-07 04:22 | 15.29730 | 108.18117 | 20921 ft | 413 kts | 2° |
| 2026-05-07 04:22 | 15.32609 | 108.18224 | 20916 ft | 413 kts | 1° |
| 2026-05-07 04:22 | 15.35494 | 108.18307 | 20930 ft | 414 kts | 1° |
| 2026-05-07 04:23 | 15.38374 | 108.18373 | 20922 ft | 414 kts | 1° |
| 2026-05-07 04:23 | 15.41257 | 108.18430 | 20919 ft | 414 kts | 1° |
| 2026-05-07 04:23 | 15.44142 | 108.18488 | 20788 ft | 417 kts | 1° |
| 2026-05-07 04:23 | 15.47104 | 108.18553 | 19920 ft | 431 kts | 1° |
| 2026-05-07 04:24 | 15.50120 | 108.18629 | 19622 ft | 434 kts | 2° |
| 2026-05-07 04:24 | 15.53093 | 108.19126 | 19534 ft | 432 kts | 18° |
| 2026-05-07 04:24 | 15.55797 | 108.20436 | 19566 ft | 428 kts | 33° |
| 2026-05-07 04:24 | 15.58045 | 108.22444 | 19561 ft | 426 kts | 49° |
| 2026-05-07 04:25 | 15.59666 | 108.24998 | 19526 ft | 426 kts | 64° |
| 2026-05-07 04:25 | 15.60613 | 108.27923 | 18595 ft | 429 kts | 81° |
| 2026-05-07 04:25 | 15.60679 | 108.30976 | 17463 ft | 422 kts | 98° |
| 2026-05-07 04:25 | 15.59943 | 108.33886 | 16351 ft | 415 kts | 113° |
| 2026-05-07 04:26 | 15.58536 | 108.36471 | 15249 ft | 409 kts | 127° |
| 2026-05-07 04:26 | 15.56586 | 108.38565 | 14170 ft | 402 kts | 142° |
| 2026-05-07 04:26 | 15.54211 | 108.40036 | 13363 ft | 396 kts | 157° |
| 2026-05-07 04:26 | 15.51568 | 108.40818 | 13073 ft | 397 kts | 171° |
| 2026-05-07 04:27 | 15.48845 | 108.41065 | 12906 ft | 399 kts | 177° |
| 2026-05-07 04:27 | 15.46174 | 108.41110 | 12920 ft | 399 kts | 180° |
| 2026-05-07 04:27 | 15.43397 | 108.41031 | 12925 ft | 400 kts | 182° |
| 2026-05-07 04:27 | 15.40620 | 108.40894 | 12924 ft | 400 kts | 182° |
| 2026-05-07 04:28 | 15.37809 | 108.40747 | 12458 ft | 410 kts | 183° |
| 2026-05-07 04:28 | 15.34993 | 108.40247 | 12021 ft | 413 kts | 197° |
| 2026-05-07 04:28 | 15.32366 | 108.39041 | 11887 ft | 414 kts | 211° |
| 2026-05-07 04:28 | 15.30119 | 108.37205 | 11926 ft | 411 kts | 226° |
| 2026-05-07 04:29 | 15.28413 | 108.34834 | 11926 ft | 410 kts | 242° |
| 2026-05-07 04:29 | 15.27400 | 108.32086 | 11925 ft | 410 kts | 257° |
| 2026-05-07 04:29 | 15.27131 | 108.29166 | 11925 ft | 409 kts | 273° |
| 2026-05-07 04:29 | 15.27597 | 108.26273 | 11927 ft | 408 kts | 288° |
| 2026-05-07 04:30 | 15.28768 | 108.23601 | 11923 ft | 407 kts | 303° |
| 2026-05-07 04:30 | 15.30574 | 108.21352 | 11923 ft | 406 kts | 319° |
| 2026-05-07 04:30 | 15.32910 | 108.19722 | 11927 ft | 405 kts | 335° |
| 2026-05-07 04:30 | 15.35596 | 108.18865 | 11924 ft | 404 kts | 352° |
| 2026-05-07 04:31 | 15.38404 | 108.18713 | 11596 ft | 409 kts | 359° |
| 2026-05-07 04:31 | 15.41252 | 108.18674 | 10896 ft | 407 kts | 360° |
| 2026-05-07 04:31 | 15.44081 | 108.18659 | 10386 ft | 405 kts | 0° |
| 2026-05-07 04:31 | 15.46894 | 108.18650 | 10222 ft | 403 kts | 0° |
| 2026-05-07 04:32 | 15.49691 | 108.18651 | 10101 ft | 403 kts | 2° |
| 2026-05-07 04:32 | 15.52465 | 108.19032 | 9922 ft | 402 kts | 9° |
| 2026-05-07 04:32 | 15.55219 | 108.19521 | 9474 ft | 399 kts | 10° |
| 2026-05-07 04:32 | 15.57870 | 108.19996 | 9059 ft | 371 kts | 10° |
| 2026-05-07 04:33 | 15.60311 | 108.20435 | 8817 ft | 342 kts | 10° |
| 2026-05-07 04:33 | 15.62591 | 108.20843 | 8072 ft | 334 kts | 9° |
| 2026-05-07 04:33 | 15.64722 | 108.21222 | 7606 ft | 320 kts | 10° |
| 2026-05-07 04:33 | 15.66819 | 108.21594 | 7186 ft | 307 kts | 9° |
| 2026-05-07 04:34 | 15.68881 | 108.21961 | 6773 ft | 295 kts | 10° |
| 2026-05-07 04:34 | 15.70889 | 108.22321 | 6386 ft | 284 kts | 10° |
| 2026-05-07 04:34 | 15.72787 | 108.22661 | 6015 ft | 276 kts | 10° |
| 2026-05-07 04:34 | 15.74446 | 108.22958 | 5680 ft | 267 kts | 10° |
| 2026-05-07 04:35 | 15.76248 | 108.23280 | 5316 ft | 259 kts | 10° |
| 2026-05-07 04:35 | 15.77991 | 108.23592 | 4988 ft | 250 kts | 9° |
| 2026-05-07 04:35 | 15.79686 | 108.23606 | 4661 ft | 239 kts | 351° |
| 2026-05-07 04:35 | 15.80239 | 108.23512 | 4556 ft | 237 kts | 351° |
| 2026-05-07 04:36 | 15.81320 | 108.23315 | 4334 ft | 237 kts | 348° |
| 2026-05-07 04:36 | 15.82453 | 108.23053 | 3692 ft | 255 kts | 347° |
| 2026-05-07 04:36 | 15.84141 | 108.22717 | 3671 ft | 239 kts | 353° |
| 2026-05-07 04:36 | 15.85774 | 108.22521 | 3680 ft | 235 kts | 354° |
| 2026-05-07 04:37 | 15.87390 | 108.22304 | 3677 ft | 230 kts | 353° |
| 2026-05-07 04:37 | 15.88925 | 108.22082 | 3676 ft | 217 kts | 352° |
| 2026-05-07 04:37 | 15.90412 | 108.21866 | 3679 ft | 214 kts | 353° |
| 2026-05-07 04:37 | 15.91899 | 108.21650 | 3401 ft | 219 kts | 353° |
| 2026-05-07 04:38 | 15.93397 | 108.21432 | 3022 ft | 215 kts | 353° |
| 2026-05-07 04:38 | 15.94851 | 108.21221 | 2682 ft | 207 kts | 353° |
| 2026-05-07 04:38 | 15.96260 | 108.21017 | 2272 ft | 202 kts | 353° |
| 2026-05-07 04:38 | 15.97676 | 108.20814 | 1690 ft | 207 kts | 353° |
| 2026-05-07 04:39 | 15.98639 | 108.20674 | 1304 ft | 205 kts | 353° |
| 2026-05-07 04:39 | 15.99807 | 108.20492 | 993 ft | 199 kts | 352° |
| 2026-05-07 04:39 | 16.01025 | 108.20280 | 1266 ft | 169 kts | 352° |
| 2026-05-07 04:39 | 16.02135 | 108.20363 | 1574 ft | 159 kts | 25° |
| 2026-05-07 04:40 | 16.03000 | 108.21103 | 1883 ft | 170 kts | 61° |
| 2026-05-07 04:40 | 16.03373 | 108.22304 | 1940 ft | 183 kts | 92° |
| 2026-05-07 04:40 | 16.03222 | 108.23153 | 1952 ft | 181 kts | 108° |
| 2026-05-07 04:40 | 16.02836 | 108.24185 | 1939 ft | 171 kts | 113° |
| 2026-05-07 04:41 | 16.02366 | 108.25302 | 1932 ft | 167 kts | 114° |
| 2026-05-07 04:41 | 16.01809 | 108.26349 | 1918 ft | 166 kts | 136° |
| 2026-05-07 04:41 | 16.00857 | 108.27004 | 1937 ft | 166 kts | 154° |
| 2026-05-07 04:41 | 15.99790 | 108.27470 | 1937 ft | 167 kts | 158° |
| 2026-05-07 04:42 | 15.98670 | 108.27794 | 1943 ft | 168 kts | 167° |
| 2026-05-07 04:42 | 15.97521 | 108.28029 | 1949 ft | 168 kts | 169° |
| 2026-05-07 04:42 | 15.96362 | 108.28130 | 1934 ft | 168 kts | 177° |
| 2026-05-07 04:42 | 15.95204 | 108.28151 | 1785 ft | 166 kts | 179° |
| 2026-05-07 04:43 | 15.94067 | 108.27958 | 1581 ft | 166 kts | 194° |
| 2026-05-07 04:43 | 15.92981 | 108.27541 | 1503 ft | 168 kts | 211° |
| 2026-05-07 04:43 | 15.92417 | 108.26990 | 1522 ft | 171 kts | 231° |
| 2026-05-07 04:43 | 15.91764 | 108.25983 | 1509 ft | 162 kts | 242° |
| 2026-05-07 04:44 | 15.91409 | 108.24909 | 1531 ft | 155 kts | 256° |
| 2026-05-07 04:44 | 15.91313 | 108.23805 | 1519 ft | 153 kts | 277° |
| 2026-05-07 04:44 | 15.91636 | 108.22759 | 1512 ft | 153 kts | 301° |
| 2026-05-07 04:44 | 15.92328 | 108.21935 | 1509 ft | 151 kts | 325° |
| 2026-05-07 04:45 | 15.93269 | 108.21466 | 1513 ft | 150 kts | 348° |
| 2026-05-07 04:45 | 15.94292 | 108.21305 | 1517 ft | 149 kts | 354° |
| 2026-05-07 04:45 | 15.95320 | 108.21155 | 1475 ft | 149 kts | 354° |
| 2026-05-07 04:45 | 15.96345 | 108.21004 | 1344 ft | 149 kts | 353° |
| 2026-05-07 04:46 | 15.97372 | 108.20852 | 1196 ft | 148 kts | 354° |
| 2026-05-07 04:46 | 15.98395 | 108.20707 | 995 ft | 148 kts | 354° |
| 2026-05-07 04:46 | 15.99413 | 108.20559 | 792 ft | 147 kts | 353° |
| 2026-05-07 04:46 | 16.00428 | 108.20411 | 580 ft | 147 kts | 353° |
| 2026-05-07 04:47 | 16.01437 | 108.20266 | 384 ft | 146 kts | 354° |
| 2026-05-07 04:47 | 16.02443 | 108.20122 | 192 ft | 145 kts | 353° |
| 2026-05-07 04:47 | 16.03431 | 108.19978 | 37 ft | 134 kts | 352° |
| 2026-05-07 04:47 | 16.04121 | 108.19878 | 32 ft | 58 kts | 352° |
| 2026-05-07 04:48 | 16.04375 | 108.19842 | 33 ft | 33 kts | 352° |
| 2026-05-07 04:48 | 16.04585 | 108.19810 | 34 ft | 24 kts | 351° |
| 2026-05-07 04:48 | 16.04726 | 108.19790 | 34 ft | 20 kts | 352° |
| 2026-05-07 04:48 | 16.04856 | 108.19773 | 35 ft | 14 kts | 4° |
| 2026-05-07 04:49 | 16.04884 | 108.19850 | 35 ft | 12 kts | 82° |
| 2026-05-07 04:49 | 16.04895 | 108.19942 | 33 ft | 13 kts | 82° |
| 2026-05-07 04:49 | 16.04907 | 108.20036 | 31 ft | 13 kts | 83° |
| 2026-05-07 04:49 | 16.04935 | 108.20103 | 33 ft | 9 kts | 14° |
| 2026-05-07 04:50 | 16.05004 | 108.20093 | 32 ft | 11 kts | 352° |
| 2026-05-07 04:50 | 16.05086 | 108.20081 | 34 ft | 13 kts | 352° |
| 2026-05-07 04:50 | 16.05172 | 108.20069 | 34 ft | 11 kts | 352° |
| 2026-05-07 04:50 | 16.05257 | 108.20057 | 34 ft | 13 kts | 352° |
| 2026-05-07 04:51 | 16.05341 | 108.20045 | 34 ft | 13 kts | 352° |
| 2026-05-07 04:51 | 16.05435 | 108.20032 | 34 ft | 13 kts | 352° |
| 2026-05-07 04:51 | 16.05527 | 108.20017 | 34 ft | 12 kts | 352° |
| 2026-05-07 04:51 | 16.05603 | 108.20006 | 34 ft | 9 kts | 352° |
| 2026-05-07 04:52 | 16.05672 | 108.19997 | 34 ft | 10 kts | 352° |
| 2026-05-07 04:52 | 16.05743 | 108.19986 | 33 ft | 10 kts | 352° |
| 2026-05-07 04:52 | 16.05793 | 108.19999 | 33 ft | 8 kts | 55° |
| 2026-05-07 04:52 | 16.05808 | 108.20054 | 34 ft | 8 kts | 82° |
| 2026-05-07 04:53 | 16.05815 | 108.20105 | 34 ft | 4 kts | 82° |
| 2026-05-07 04:53 | 16.05817 | 108.20124 | 34 ft | 1 kts | 82° |
| 2026-05-07 04:53 | 16.05818 | 108.20130 | 34 ft | 0 kts | 82° |